sensor_id;sensor_type;location;lat;lon;timestamp;P1;durP1;ratioP1;P2;durP2;ratioP2
71116;SDS011;58775;46.992;9.518;2023-11-22T00:01:10;3.03;;;0.90;;
71116;SDS011;58775;46.992;9.518;2023-11-22T00:03:11;4.90;;;1.27;;
71116;SDS011;58775;46.992;9.518;2023-11-22T00:05:12;3.58;;;1.20;;
71116;SDS011;58775;46.992;9.518;2023-11-22T00:07:13;3.17;;;1.17;;
71116;SDS011;58775;46.992;9.518;2023-11-22T00:09:14;1.98;;;0.63;;
71116;SDS011;58775;46.992;9.518;2023-11-22T00:11:15;2.90;;;1.00;;
71116;SDS011;58775;46.992;9.518;2023-11-22T00:13:15;4.10;;;1.33;;
71116;SDS011;58775;46.992;9.518;2023-11-22T00:15:16;3.97;;;1.65;;
71116;SDS011;58775;46.992;9.518;2023-11-22T00:17:18;4.15;;;1.80;;
71116;SDS011;58775;46.992;9.518;2023-11-22T00:19:19;3.83;;;0.97;;
71116;SDS011;58775;46.992;9.518;2023-11-22T00:21:22;2.72;;;0.90;;
71116;SDS011;58775;46.992;9.518;2023-11-22T00:23:23;3.80;;;1.08;;
71116;SDS011;58775;46.992;9.518;2023-11-22T00:25:27;4.00;;;1.10;;
71116;SDS011;58775;46.992;9.518;2023-11-22T00:27:28;2.73;;;1.03;;
71116;SDS011;58775;46.992;9.518;2023-11-22T00:29:32;3.58;;;1.30;;
71116;SDS011;58775;46.992;9.518;2023-11-22T00:31:33;3.50;;;1.05;;
71116;SDS011;58775;46.992;9.518;2023-11-22T00:33:34;2.93;;;1.10;;
71116;SDS011;58775;46.992;9.518;2023-11-22T00:35:35;3.08;;;1.10;;
71116;SDS011;58775;46.992;9.518;2023-11-22T00:37:36;3.38;;;1.00;;
71116;SDS011;58775;46.992;9.518;2023-11-22T00:39:37;3.53;;;1.30;;
71116;SDS011;58775;46.992;9.518;2023-11-22T00:41:37;3.63;;;1.30;;
71116;SDS011;58775;46.992;9.518;2023-11-22T00:43:38;4.63;;;1.77;;
71116;SDS011;58775;46.992;9.518;2023-11-22T00:45:39;5.20;;;1.67;;
71116;SDS011;58775;46.992;9.518;2023-11-22T00:47:40;3.78;;;1.58;;
71116;SDS011;58775;46.992;9.518;2023-11-22T00:49:41;2.67;;;1.00;;
71116;SDS011;58775;46.992;9.518;2023-11-22T00:51:42;3.65;;;1.20;;
71116;SDS011;58775;46.992;9.518;2023-11-22T00:53:43;3.92;;;1.42;;
71116;SDS011;58775;46.992;9.518;2023-11-22T00:55:44;3.63;;;1.20;;
71116;SDS011;58775;46.992;9.518;2023-11-22T00:57:44;3.72;;;1.30;;
71116;SDS011;58775;46.992;9.518;2023-11-22T00:59:45;4.67;;;1.80;;
71116;SDS011;58775;46.992;9.518;2023-11-22T01:01:46;3.88;;;1.25;;
71116;SDS011;58775;46.992;9.518;2023-11-22T01:03:47;2.33;;;0.80;;
71116;SDS011;58775;46.992;9.518;2023-11-22T01:05:48;2.03;;;0.60;;
71116;SDS011;58775;46.992;9.518;2023-11-22T01:07:48;2.45;;;0.63;;
71116;SDS011;58775;46.992;9.518;2023-11-22T01:09:49;3.73;;;1.27;;
71116;SDS011;58775;46.992;9.518;2023-11-22T01:11:50;3.17;;;1.10;;
71116;SDS011;58775;46.992;9.518;2023-11-22T01:13:51;3.58;;;1.30;;
71116;SDS011;58775;46.992;9.518;2023-11-22T01:15:52;3.90;;;1.20;;
71116;SDS011;58775;46.992;9.518;2023-11-22T01:17:54;2.75;;;1.00;;
71116;SDS011;58775;46.992;9.518;2023-11-22T01:19:55;2.90;;;0.90;;
71116;SDS011;58775;46.992;9.518;2023-11-22T01:21:56;2.63;;;0.80;;
71116;SDS011;58775;46.992;9.518;2023-11-22T01:23:57;2.20;;;0.65;;
71116;SDS011;58775;46.992;9.518;2023-11-22T01:25:58;2.08;;;0.98;;
71116;SDS011;58775;46.992;9.518;2023-11-22T01:27:59;2.80;;;1.00;;
71116;SDS011;58775;46.992;9.518;2023-11-22T01:30:00;5.03;;;1.83;;
71116;SDS011;58775;46.992;9.518;2023-11-22T01:32:04;2.95;;;1.20;;
71116;SDS011;58775;46.992;9.518;2023-11-22T01:34:05;2.08;;;0.80;;
71116;SDS011;58775;46.992;9.518;2023-11-22T01:36:06;3.17;;;1.07;;
71116;SDS011;58775;46.992;9.518;2023-11-22T01:38:07;2.75;;;0.90;;
71116;SDS011;58775;46.992;9.518;2023-11-22T01:40:08;2.10;;;0.68;;
71116;SDS011;58775;46.992;9.518;2023-11-22T01:42:09;2.17;;;0.60;;
71116;SDS011;58775;46.992;9.518;2023-11-22T01:44:09;2.13;;;0.73;;
71116;SDS011;58775;46.992;9.518;2023-11-22T01:46:10;1.63;;;0.60;;
71116;SDS011;58775;46.992;9.518;2023-11-22T01:48:24;2.78;;;1.17;;
71116;SDS011;58775;46.992;9.518;2023-11-22T01:50:25;3.43;;;0.83;;
71116;SDS011;58775;46.992;9.518;2023-11-22T01:52:26;2.90;;;0.60;;
71116;SDS011;58775;46.992;9.518;2023-11-22T01:54:27;2.80;;;0.60;;
71116;SDS011;58775;46.992;9.518;2023-11-22T01:56:29;2.08;;;0.68;;
71116;SDS011;58775;46.992;9.518;2023-11-22T01:58:32;3.00;;;0.80;;
71116;SDS011;58775;46.992;9.518;2023-11-22T02:00:36;2.00;;;0.40;;
71116;SDS011;58775;46.992;9.518;2023-11-22T02:02:45;2.47;;;0.60;;
71116;SDS011;58775;46.992;9.518;2023-11-22T02:04:46;2.50;;;0.60;;
71116;SDS011;58775;46.992;9.518;2023-11-22T02:06:47;2.05;;;0.63;;
71116;SDS011;58775;46.992;9.518;2023-11-22T02:08:48;1.38;;;0.40;;
71116;SDS011;58775;46.992;9.518;2023-11-22T02:10:58;3.17;;;0.85;;
71116;SDS011;58775;46.992;9.518;2023-11-22T02:12:59;2.35;;;0.80;;
71116;SDS011;58775;46.992;9.518;2023-11-22T02:15:05;2.65;;;0.65;;
71116;SDS011;58775;46.992;9.518;2023-11-22T02:17:06;2.15;;;0.52;;
71116;SDS011;58775;46.992;9.518;2023-11-22T02:19:08;2.00;;;0.70;;
71116;SDS011;58775;46.992;9.518;2023-11-22T02:21:18;2.65;;;0.90;;
71116;SDS011;58775;46.992;9.518;2023-11-22T02:23:19;3.30;;;0.88;;
71116;SDS011;58775;46.992;9.518;2023-11-22T02:25:20;2.95;;;0.88;;
71116;SDS011;58775;46.992;9.518;2023-11-22T02:27:21;4.60;;;1.60;;
71116;SDS011;58775;46.992;9.518;2023-11-22T02:29:22;4.88;;;1.10;;
71116;SDS011;58775;46.992;9.518;2023-11-22T02:31:23;2.83;;;0.80;;
71116;SDS011;58775;46.992;9.518;2023-11-22T02:33:24;2.40;;;0.65;;
71116;SDS011;58775;46.992;9.518;2023-11-22T02:35:25;3.50;;;0.80;;
71116;SDS011;58775;46.992;9.518;2023-11-22T02:37:27;2.95;;;0.77;;
71116;SDS011;58775;46.992;9.518;2023-11-22T02:39:31;2.00;;;0.60;;
71116;SDS011;58775;46.992;9.518;2023-11-22T02:42:04;2.28;;;0.60;;
71116;SDS011;58775;46.992;9.518;2023-11-22T02:44:05;2.40;;;0.60;;
71116;SDS011;58775;46.992;9.518;2023-11-22T02:46:09;3.58;;;1.08;;
71116;SDS011;58775;46.992;9.518;2023-11-22T02:48:09;4.50;;;0.97;;
71116;SDS011;58775;46.992;9.518;2023-11-22T02:50:10;3.33;;;1.13;;
71116;SDS011;58775;46.992;9.518;2023-11-22T02:52:11;3.92;;;1.40;;
71116;SDS011;58775;46.992;9.518;2023-11-22T02:54:14;5.30;;;1.75;;
71116;SDS011;58775;46.992;9.518;2023-11-22T02:56:15;4.80;;;1.30;;
71116;SDS011;58775;46.992;9.518;2023-11-22T02:58:16;5.13;;;1.70;;
71116;SDS011;58775;46.992;9.518;2023-11-22T03:00:17;4.47;;;1.50;;
71116;SDS011;58775;46.992;9.518;2023-11-22T03:02:19;4.30;;;1.73;;
71116;SDS011;58775;46.992;9.518;2023-11-22T03:04:19;5.15;;;1.67;;
71116;SDS011;58775;46.992;9.518;2023-11-22T03:06:20;3.47;;;1.30;;
71116;SDS011;58775;46.992;9.518;2023-11-22T03:08:21;3.97;;;1.42;;
71116;SDS011;58775;46.992;9.518;2023-11-22T03:10:22;4.17;;;1.40;;
71116;SDS011;58775;46.992;9.518;2023-11-22T03:12:23;3.42;;;1.08;;
71116;SDS011;58775;46.992;9.518;2023-11-22T03:14:23;3.63;;;1.35;;
71116;SDS011;58775;46.992;9.518;2023-11-22T03:16:24;3.13;;;1.30;;
71116;SDS011;58775;46.992;9.518;2023-11-22T03:18:25;4.60;;;1.50;;
71116;SDS011;58775;46.992;9.518;2023-11-22T03:20:26;3.85;;;1.42;;
71116;SDS011;58775;46.992;9.518;2023-11-22T03:22:28;3.63;;;1.38;;
71116;SDS011;58775;46.992;9.518;2023-11-22T03:24:35;3.90;;;1.33;;
71116;SDS011;58775;46.992;9.518;2023-11-22T03:26:37;3.90;;;1.42;;
71116;SDS011;58775;46.992;9.518;2023-11-22T03:28:39;5.68;;;1.52;;
71116;SDS011;58775;46.992;9.518;2023-11-22T03:30:40;4.60;;;1.67;;
71116;SDS011;58775;46.992;9.518;2023-11-22T03:32:41;6.63;;;1.33;;
71116;SDS011;58775;46.992;9.518;2023-11-22T03:34:44;3.92;;;1.30;;
71116;SDS011;58775;46.992;9.518;2023-11-22T03:36:45;4.15;;;1.30;;
71116;SDS011;58775;46.992;9.518;2023-11-22T03:38:46;5.93;;;1.75;;
71116;SDS011;58775;46.992;9.518;2023-11-22T03:40:47;4.15;;;1.05;;
71116;SDS011;58775;46.992;9.518;2023-11-22T03:42:49;4.18;;;1.30;;
71116;SDS011;58775;46.992;9.518;2023-11-22T03:44:49;5.63;;;1.50;;
71116;SDS011;58775;46.992;9.518;2023-11-22T03:46:51;4.28;;;1.40;;
71116;SDS011;58775;46.992;9.518;2023-11-22T03:48:51;4.90;;;1.50;;
71116;SDS011;58775;46.992;9.518;2023-11-22T03:50:52;4.10;;;1.50;;
71116;SDS011;58775;46.992;9.518;2023-11-22T03:52:53;3.90;;;1.27;;
71116;SDS011;58775;46.992;9.518;2023-11-22T03:54:54;3.67;;;1.58;;
71116;SDS011;58775;46.992;9.518;2023-11-22T03:56:55;4.90;;;1.97;;
71116;SDS011;58775;46.992;9.518;2023-11-22T03:58:56;6.75;;;1.90;;
71116;SDS011;58775;46.992;9.518;2023-11-22T04:00:57;4.93;;;1.63;;
71116;SDS011;58775;46.992;9.518;2023-11-22T04:02:59;6.18;;;2.35;;
71116;SDS011;58775;46.992;9.518;2023-11-22T04:05:02;5.28;;;1.90;;
71116;SDS011;58775;46.992;9.518;2023-11-22T04:07:03;4.97;;;1.80;;
71116;SDS011;58775;46.992;9.518;2023-11-22T04:09:04;5.68;;;1.73;;
71116;SDS011;58775;46.992;9.518;2023-11-22T04:11:05;4.20;;;1.63;;
71116;SDS011;58775;46.992;9.518;2023-11-22T04:13:06;4.85;;;1.80;;
71116;SDS011;58775;46.992;9.518;2023-11-22T04:15:07;4.45;;;1.55;;
71116;SDS011;58775;46.992;9.518;2023-11-22T04:17:11;4.80;;;1.60;;
71116;SDS011;58775;46.992;9.518;2023-11-22T04:19:12;6.63;;;1.88;;
71116;SDS011;58775;46.992;9.518;2023-11-22T04:21:13;4.25;;;1.50;;
71116;SDS011;58775;46.992;9.518;2023-11-22T04:23:14;4.40;;;1.60;;
71116;SDS011;58775;46.992;9.518;2023-11-22T04:25:15;4.70;;;1.50;;
71116;SDS011;58775;46.992;9.518;2023-11-22T04:27:15;4.88;;;1.85;;
71116;SDS011;58775;46.992;9.518;2023-11-22T04:29:16;4.32;;;1.40;;
71116;SDS011;58775;46.992;9.518;2023-11-22T04:31:17;5.13;;;1.80;;
71116;SDS011;58775;46.992;9.518;2023-11-22T04:33:18;6.65;;;2.25;;
71116;SDS011;58775;46.992;9.518;2023-11-22T04:35:19;5.60;;;2.08;;
71116;SDS011;58775;46.992;9.518;2023-11-22T04:37:20;5.07;;;1.88;;
71116;SDS011;58775;46.992;9.518;2023-11-22T04:39:23;4.95;;;1.75;;
71116;SDS011;58775;46.992;9.518;2023-11-22T04:41:24;5.63;;;1.92;;
71116;SDS011;58775;46.992;9.518;2023-11-22T04:43:26;6.75;;;1.60;;
71116;SDS011;58775;46.992;9.518;2023-11-22T04:45:27;4.47;;;1.33;;
71116;SDS011;58775;46.992;9.518;2023-11-22T04:47:28;4.72;;;1.38;;
71116;SDS011;58775;46.992;9.518;2023-11-22T04:49:28;2.93;;;1.10;;
71116;SDS011;58775;46.992;9.518;2023-11-22T04:51:29;4.85;;;1.30;;
71116;SDS011;58775;46.992;9.518;2023-11-22T04:53:30;3.90;;;1.30;;
71116;SDS011;58775;46.992;9.518;2023-11-22T04:55:32;3.97;;;1.45;;
71116;SDS011;58775;46.992;9.518;2023-11-22T04:57:33;4.20;;;1.20;;
71116;SDS011;58775;46.992;9.518;2023-11-22T04:59:34;4.60;;;1.60;;
71116;SDS011;58775;46.992;9.518;2023-11-22T05:01:34;4.60;;;1.38;;
71116;SDS011;58775;46.992;9.518;2023-11-22T05:03:35;5.57;;;1.50;;
71116;SDS011;58775;46.992;9.518;2023-11-22T05:05:37;6.00;;;1.27;;
71116;SDS011;58775;46.992;9.518;2023-11-22T05:07:38;4.28;;;1.40;;
71116;SDS011;58775;46.992;9.518;2023-11-22T05:09:39;2.42;;;0.85;;
71116;SDS011;58775;46.992;9.518;2023-11-22T05:11:40;3.70;;;1.27;;
71116;SDS011;58775;46.992;9.518;2023-11-22T05:13:44;3.92;;;1.25;;
71116;SDS011;58775;46.992;9.518;2023-11-22T05:15:45;3.38;;;1.00;;
71116;SDS011;58775;46.992;9.518;2023-11-22T05:17:47;3.22;;;1.08;;
71116;SDS011;58775;46.992;9.518;2023-11-22T05:19:48;3.17;;;1.00;;
71116;SDS011;58775;46.992;9.518;2023-11-22T05:21:50;3.92;;;1.30;;
71116;SDS011;58775;46.992;9.518;2023-11-22T05:23:51;3.17;;;1.20;;
71116;SDS011;58775;46.992;9.518;2023-11-22T05:25:54;3.97;;;1.35;;
71116;SDS011;58775;46.992;9.518;2023-11-22T05:27:56;3.53;;;1.10;;
71116;SDS011;58775;46.992;9.518;2023-11-22T05:29:57;4.87;;;1.30;;
71116;SDS011;58775;46.992;9.518;2023-11-22T05:31:57;4.40;;;1.40;;
71116;SDS011;58775;46.992;9.518;2023-11-22T05:33:58;4.97;;;1.60;;
71116;SDS011;58775;46.992;9.518;2023-11-22T05:35:59;4.72;;;1.55;;
71116;SDS011;58775;46.992;9.518;2023-11-22T05:38:00;4.63;;;1.42;;
71116;SDS011;58775;46.992;9.518;2023-11-22T05:40:02;4.75;;;1.40;;
71116;SDS011;58775;46.992;9.518;2023-11-22T05:42:05;4.20;;;1.10;;
71116;SDS011;58775;46.992;9.518;2023-11-22T05:44:07;4.70;;;1.40;;
71116;SDS011;58775;46.992;9.518;2023-11-22T05:46:08;4.45;;;1.90;;
71116;SDS011;58775;46.992;9.518;2023-11-22T05:48:09;5.17;;;1.67;;
71116;SDS011;58775;46.992;9.518;2023-11-22T05:50:10;5.20;;;2.00;;
71116;SDS011;58775;46.992;9.518;2023-11-22T05:52:11;5.18;;;1.90;;
71116;SDS011;58775;46.992;9.518;2023-11-22T05:54:12;5.18;;;1.83;;
71116;SDS011;58775;46.992;9.518;2023-11-22T05:56:13;6.65;;;2.80;;
71116;SDS011;58775;46.992;9.518;2023-11-22T05:58:15;6.20;;;2.40;;
71116;SDS011;58775;46.992;9.518;2023-11-22T06:00:16;5.28;;;2.47;;
71116;SDS011;58775;46.992;9.518;2023-11-22T06:02:17;5.80;;;2.30;;
71116;SDS011;58775;46.992;9.518;2023-11-22T06:04:18;6.35;;;2.35;;
71116;SDS011;58775;46.992;9.518;2023-11-22T06:06:19;6.53;;;2.33;;
71116;SDS011;58775;46.992;9.518;2023-11-22T06:08:21;6.32;;;1.83;;
71116;SDS011;58775;46.992;9.518;2023-11-22T06:10:22;6.35;;;2.85;;
71116;SDS011;58775;46.992;9.518;2023-11-22T06:12:24;6.13;;;2.20;;
71116;SDS011;58775;46.992;9.518;2023-11-22T06:14:24;6.05;;;2.13;;
71116;SDS011;58775;46.992;9.518;2023-11-22T06:16:25;4.73;;;1.67;;
71116;SDS011;58775;46.992;9.518;2023-11-22T06:18:26;4.63;;;2.05;;
71116;SDS011;58775;46.992;9.518;2023-11-22T06:22:49;4.05;;;1.40;;
71116;SDS011;58775;46.992;9.518;2023-11-22T06:24:50;4.60;;;1.80;;
71116;SDS011;58775;46.992;9.518;2023-11-22T06:26:51;7.03;;;1.90;;
71116;SDS011;58775;46.992;9.518;2023-11-22T06:28:51;4.63;;;1.53;;
71116;SDS011;58775;46.992;9.518;2023-11-22T06:30:52;5.07;;;1.88;;
71116;SDS011;58775;46.992;9.518;2023-11-22T06:32:53;6.85;;;2.00;;
71116;SDS011;58775;46.992;9.518;2023-11-22T06:34:54;6.37;;;2.57;;
71116;SDS011;58775;46.992;9.518;2023-11-22T06:36:55;6.07;;;2.22;;
71116;SDS011;58775;46.992;9.518;2023-11-22T06:38:56;6.53;;;2.00;;
71116;SDS011;58775;46.992;9.518;2023-11-22T06:40:56;4.97;;;1.98;;
71116;SDS011;58775;46.992;9.518;2023-11-22T06:42:57;4.70;;;2.13;;
71116;SDS011;58775;46.992;9.518;2023-11-22T06:44:58;5.00;;;1.90;;
71116;SDS011;58775;46.992;9.518;2023-11-22T06:47:00;5.05;;;1.90;;
71116;SDS011;58775;46.992;9.518;2023-11-22T06:49:02;6.30;;;2.08;;
71116;SDS011;58775;46.992;9.518;2023-11-22T06:51:03;4.28;;;1.77;;
71116;SDS011;58775;46.992;9.518;2023-11-22T06:53:04;3.63;;;1.50;;
71116;SDS011;58775;46.992;9.518;2023-11-22T06:55:05;6.03;;;1.73;;
71116;SDS011;58775;46.992;9.518;2023-11-22T06:57:09;4.40;;;1.80;;
71116;SDS011;58775;46.992;9.518;2023-11-22T06:59:10;4.83;;;2.00;;
71116;SDS011;58775;46.992;9.518;2023-11-22T07:01:11;4.85;;;1.67;;
71116;SDS011;58775;46.992;9.518;2023-11-22T07:03:12;4.55;;;1.77;;
71116;SDS011;58775;46.992;9.518;2023-11-22T07:05:13;4.40;;;1.70;;
71116;SDS011;58775;46.992;9.518;2023-11-22T07:07:14;5.32;;;1.90;;
71116;SDS011;58775;46.992;9.518;2023-11-22T07:09:15;5.75;;;2.22;;
71116;SDS011;58775;46.992;9.518;2023-11-22T07:11:22;5.33;;;2.20;;
71116;SDS011;58775;46.992;9.518;2023-11-22T07:13:23;5.78;;;1.65;;
71116;SDS011;58775;46.992;9.518;2023-11-22T07:15:24;4.85;;;1.52;;
71116;SDS011;58775;46.992;9.518;2023-11-22T07:17:26;5.28;;;1.60;;
71116;SDS011;58775;46.992;9.518;2023-11-22T07:19:30;5.13;;;1.60;;
71116;SDS011;58775;46.992;9.518;2023-11-22T07:21:31;4.22;;;1.30;;
71116;SDS011;58775;46.992;9.518;2023-11-22T07:23:31;3.75;;;1.38;;
71116;SDS011;58775;46.992;9.518;2023-11-22T07:25:32;3.90;;;1.10;;
71116;SDS011;58775;46.992;9.518;2023-11-22T07:27:34;4.40;;;1.40;;
71116;SDS011;58775;46.992;9.518;2023-11-22T07:29:34;3.45;;;1.10;;
71116;SDS011;58775;46.992;9.518;2023-11-22T07:31:35;3.13;;;0.97;;
71116;SDS011;58775;46.992;9.518;2023-11-22T07:33:36;2.72;;;0.80;;
71116;SDS011;58775;46.992;9.518;2023-11-22T07:35:38;2.95;;;0.95;;
71116;SDS011;58775;46.992;9.518;2023-11-22T07:37:39;2.67;;;0.70;;
71116;SDS011;58775;46.992;9.518;2023-11-22T07:39:42;2.47;;;0.73;;
71116;SDS011;58775;46.992;9.518;2023-11-22T07:41:44;3.05;;;0.80;;
71116;SDS011;58775;46.992;9.518;2023-11-22T07:43:45;2.22;;;0.70;;
71116;SDS011;58775;46.992;9.518;2023-11-22T07:45:46;2.50;;;0.90;;
71116;SDS011;58775;46.992;9.518;2023-11-22T07:47:49;4.10;;;0.85;;
71116;SDS011;58775;46.992;9.518;2023-11-22T07:49:52;2.78;;;0.80;;
71116;SDS011;58775;46.992;9.518;2023-11-22T07:51:55;2.40;;;0.73;;
71116;SDS011;58775;46.992;9.518;2023-11-22T07:53:56;1.63;;;0.55;;
71116;SDS011;58775;46.992;9.518;2023-11-22T07:55:57;2.47;;;0.55;;
71116;SDS011;58775;46.992;9.518;2023-11-22T07:57:58;3.07;;;0.80;;
71116;SDS011;58775;46.992;9.518;2023-11-22T07:59:58;2.22;;;0.70;;
71116;SDS011;58775;46.992;9.518;2023-11-22T08:02:01;1.65;;;0.60;;
71116;SDS011;58775;46.992;9.518;2023-11-22T08:04:02;3.95;;;1.00;;
71116;SDS011;58775;46.992;9.518;2023-11-22T08:06:03;3.85;;;1.10;;
71116;SDS011;58775;46.992;9.518;2023-11-22T08:08:05;2.25;;;1.02;;
71116;SDS011;58775;46.992;9.518;2023-11-22T08:10:09;2.50;;;0.80;;
71116;SDS011;58775;46.992;9.518;2023-11-22T08:12:17;2.15;;;0.60;;
71116;SDS011;58775;46.992;9.518;2023-11-22T08:14:19;3.58;;;1.10;;
71116;SDS011;58775;46.992;9.518;2023-11-22T08:16:21;2.08;;;0.73;;
71116;SDS011;58775;46.992;9.518;2023-11-22T08:18:22;3.40;;;0.90;;
71116;SDS011;58775;46.992;9.518;2023-11-22T08:20:22;1.98;;;0.52;;
71116;SDS011;58775;46.992;9.518;2023-11-22T08:22:23;2.27;;;0.77;;
71116;SDS011;58775;46.992;9.518;2023-11-22T08:24:26;2.88;;;0.73;;
71116;SDS011;58775;46.992;9.518;2023-11-22T08:26:27;1.95;;;0.60;;
71116;SDS011;58775;46.992;9.518;2023-11-22T08:28:29;2.03;;;0.60;;
71116;SDS011;58775;46.992;9.518;2023-11-22T08:30:29;2.67;;;0.93;;
71116;SDS011;58775;46.992;9.518;2023-11-22T08:32:33;2.17;;;0.57;;
71116;SDS011;58775;46.992;9.518;2023-11-22T08:34:34;3.50;;;0.63;;
71116;SDS011;58775;46.992;9.518;2023-11-22T08:36:34;2.88;;;0.88;;
71116;SDS011;58775;46.992;9.518;2023-11-22T08:38:35;2.97;;;0.63;;
71116;SDS011;58775;46.992;9.518;2023-11-22T08:40:36;1.92;;;0.60;;
71116;SDS011;58775;46.992;9.518;2023-11-22T08:42:37;2.88;;;0.70;;
71116;SDS011;58775;46.992;9.518;2023-11-22T08:44:38;3.75;;;1.00;;
71116;SDS011;58775;46.992;9.518;2023-11-22T08:46:39;2.93;;;0.63;;
71116;SDS011;58775;46.992;9.518;2023-11-22T08:48:40;1.85;;;0.55;;
71116;SDS011;58775;46.992;9.518;2023-11-22T08:50:41;1.58;;;0.47;;
71116;SDS011;58775;46.992;9.518;2023-11-22T08:52:42;1.30;;;0.60;;
71116;SDS011;58775;46.992;9.518;2023-11-22T08:54:45;2.75;;;0.68;;
71116;SDS011;58775;46.992;9.518;2023-11-22T08:56:46;2.17;;;0.60;;
71116;SDS011;58775;46.992;9.518;2023-11-22T08:58:47;2.35;;;0.60;;
71116;SDS011;58775;46.992;9.518;2023-11-22T09:00:48;3.53;;;1.00;;
71116;SDS011;58775;46.992;9.518;2023-11-22T09:02:49;2.70;;;0.60;;
71116;SDS011;58775;46.992;9.518;2023-11-22T09:04:49;2.60;;;0.82;;
71116;SDS011;58775;46.992;9.518;2023-11-22T09:06:50;2.07;;;0.60;;
71116;SDS011;58775;46.992;9.518;2023-11-22T09:08:51;2.53;;;0.80;;
71116;SDS011;58775;46.992;9.518;2023-11-22T09:10:52;3.07;;;0.90;;
71116;SDS011;58775;46.992;9.518;2023-11-22T09:12:53;3.03;;;1.00;;
71116;SDS011;58775;46.992;9.518;2023-11-22T09:14:54;1.80;;;0.60;;
71116;SDS011;58775;46.992;9.518;2023-11-22T09:16:54;2.57;;;0.70;;
71116;SDS011;58775;46.992;9.518;2023-11-22T09:18:55;1.95;;;0.50;;
71116;SDS011;58775;46.992;9.518;2023-11-22T09:20:58;1.38;;;0.52;;
71116;SDS011;58775;46.992;9.518;2023-11-22T09:22:58;1.97;;;0.50;;
71116;SDS011;58775;46.992;9.518;2023-11-22T09:24:59;1.67;;;0.50;;
71116;SDS011;58775;46.992;9.518;2023-11-22T09:27:00;2.38;;;0.50;;
71116;SDS011;58775;46.992;9.518;2023-11-22T09:29:03;3.97;;;0.90;;
71116;SDS011;58775;46.992;9.518;2023-11-22T09:31:05;1.67;;;0.40;;
71116;SDS011;58775;46.992;9.518;2023-11-22T09:33:09;1.33;;;0.40;;
71116;SDS011;58775;46.992;9.518;2023-11-22T09:35:15;1.05;;;0.35;;
71116;SDS011;58775;46.992;9.518;2023-11-22T09:37:16;1.10;;;0.30;;
71116;SDS011;58775;46.992;9.518;2023-11-22T09:39:17;0.95;;;0.30;;
71116;SDS011;58775;46.992;9.518;2023-11-22T09:41:21;1.05;;;0.20;;
71116;SDS011;58775;46.992;9.518;2023-11-22T09:43:22;1.03;;;0.30;;
71116;SDS011;58775;46.992;9.518;2023-11-22T09:45:25;1.20;;;0.30;;
71116;SDS011;58775;46.992;9.518;2023-11-22T09:47:26;3.25;;;0.45;;
71116;SDS011;58775;46.992;9.518;2023-11-22T09:49:29;1.23;;;0.30;;
71116;SDS011;58775;46.992;9.518;2023-11-22T09:51:32;0.70;;;0.20;;
71116;SDS011;58775;46.992;9.518;2023-11-22T09:56:00;2.22;;;0.30;;
71116;SDS011;58775;46.992;9.518;2023-11-22T09:58:03;0.75;;;0.22;;
71116;SDS011;58775;46.992;9.518;2023-11-22T10:00:04;0.40;;;0.20;;
71116;SDS011;58775;46.992;9.518;2023-11-22T10:02:09;0.68;;;0.20;;
71116;SDS011;58775;46.992;9.518;2023-11-22T10:04:10;1.30;;;0.40;;
71116;SDS011;58775;46.992;9.518;2023-11-22T10:06:11;0.85;;;0.20;;
71116;SDS011;58775;46.992;9.518;2023-11-22T10:08:12;0.53;;;0.20;;
71116;SDS011;58775;46.992;9.518;2023-11-22T10:10:15;0.43;;;0.10;;
71116;SDS011;58775;46.992;9.518;2023-11-22T10:12:19;1.30;;;0.30;;
71116;SDS011;58775;46.992;9.518;2023-11-22T10:14:24;0.68;;;0.20;;
71116;SDS011;58775;46.992;9.518;2023-11-22T10:16:25;1.65;;;0.20;;
71116;SDS011;58775;46.992;9.518;2023-11-22T10:18:26;1.07;;;0.30;;
71116;SDS011;58775;46.992;9.518;2023-11-22T10:20:42;0.45;;;0.20;;
71116;SDS011;58775;46.992;9.518;2023-11-22T10:22:44;0.82;;;0.20;;
71116;SDS011;58775;46.992;9.518;2023-11-22T10:24:48;0.75;;;0.20;;
71116;SDS011;58775;46.992;9.518;2023-11-22T10:26:51;1.00;;;0.20;;
71116;SDS011;58775;46.992;9.518;2023-11-22T10:28:52;0.93;;;0.20;;
71116;SDS011;58775;46.992;9.518;2023-11-22T10:30:54;1.05;;;0.28;;
71116;SDS011;58775;46.992;9.518;2023-11-22T10:32:55;1.67;;;0.20;;
71116;SDS011;58775;46.992;9.518;2023-11-22T10:34:56;0.55;;;0.20;;
71116;SDS011;58775;46.992;9.518;2023-11-22T10:36:58;2.30;;;0.47;;
71116;SDS011;58775;46.992;9.518;2023-11-22T10:38:59;1.00;;;0.25;;
71116;SDS011;58775;46.992;9.518;2023-11-22T10:41:00;0.77;;;0.20;;
71116;SDS011;58775;46.992;9.518;2023-11-22T10:43:04;0.65;;;0.20;;
71116;SDS011;58775;46.992;9.518;2023-11-22T10:45:08;0.47;;;0.20;;
71116;SDS011;58775;46.992;9.518;2023-11-22T10:47:09;1.17;;;0.30;;
71116;SDS011;58775;46.992;9.518;2023-11-22T10:49:13;2.35;;;0.40;;
71116;SDS011;58775;46.992;9.518;2023-11-22T10:51:14;0.83;;;0.20;;
71116;SDS011;58775;46.992;9.518;2023-11-22T10:53:21;0.77;;;0.30;;
71116;SDS011;58775;46.992;9.518;2023-11-22T10:55:31;0.50;;;0.20;;
71116;SDS011;58775;46.992;9.518;2023-11-22T10:57:34;0.73;;;0.20;;
71116;SDS011;58775;46.992;9.518;2023-11-22T10:59:41;0.63;;;0.20;;
71116;SDS011;58775;46.992;9.518;2023-11-22T11:01:48;1.20;;;0.22;;
71116;SDS011;58775;46.992;9.518;2023-11-22T11:03:58;0.55;;;0.20;;
71116;SDS011;58775;46.992;9.518;2023-11-22T11:06:07;1.15;;;0.20;;
71116;SDS011;58775;46.992;9.518;2023-11-22T11:08:13;0.60;;;0.20;;
71116;SDS011;58775;46.992;9.518;2023-11-22T11:10:20;0.50;;;0.20;;
71116;SDS011;58775;46.992;9.518;2023-11-22T11:12:22;2.10;;;0.50;;
71116;SDS011;58775;46.992;9.518;2023-11-22T11:14:24;1.05;;;0.20;;
71116;SDS011;58775;46.992;9.518;2023-11-22T11:16:27;1.77;;;0.30;;
71116;SDS011;58775;46.992;9.518;2023-11-22T11:18:28;0.73;;;0.20;;
71116;SDS011;58775;46.992;9.518;2023-11-22T11:20:33;0.63;;;0.20;;
71116;SDS011;58775;46.992;9.518;2023-11-22T11:22:49;0.63;;;0.20;;
71116;SDS011;58775;46.992;9.518;2023-11-22T11:24:59;0.98;;;0.20;;
71116;SDS011;58775;46.992;9.518;2023-11-22T11:27:03;0.47;;;0.20;;
71116;SDS011;58775;46.992;9.518;2023-11-22T11:29:04;0.75;;;0.25;;
71116;SDS011;58775;46.992;9.518;2023-11-22T11:31:06;1.02;;;0.20;;
71116;SDS011;58775;46.992;9.518;2023-11-22T11:33:07;0.40;;;0.20;;
71116;SDS011;58775;46.992;9.518;2023-11-22T11:35:08;0.52;;;0.22;;
71116;SDS011;58775;46.992;9.518;2023-11-22T11:37:10;0.60;;;0.20;;
71116;SDS011;58775;46.992;9.518;2023-11-22T11:39:14;0.77;;;0.25;;
71116;SDS011;58775;46.992;9.518;2023-11-22T11:41:15;0.45;;;0.20;;
71116;SDS011;58775;46.992;9.518;2023-11-22T11:43:20;1.43;;;0.30;;
71116;SDS011;58775;46.992;9.518;2023-11-22T11:45:21;1.58;;;0.45;;
71116;SDS011;58775;46.992;9.518;2023-11-22T11:47:22;1.13;;;0.30;;
71116;SDS011;58775;46.992;9.518;2023-11-22T11:49:23;2.37;;;0.20;;
71116;SDS011;58775;46.992;9.518;2023-11-22T11:51:25;0.95;;;0.40;;
71116;SDS011;58775;46.992;9.518;2023-11-22T11:53:27;0.75;;;0.20;;
71116;SDS011;58775;46.992;9.518;2023-11-22T11:55:28;0.87;;;0.30;;
71116;SDS011;58775;46.992;9.518;2023-11-22T11:57:31;1.27;;;0.35;;
71116;SDS011;58775;46.992;9.518;2023-11-22T11:59:33;1.20;;;0.38;;
71116;SDS011;58775;46.992;9.518;2023-11-22T12:01:35;0.65;;;0.30;;
71116;SDS011;58775;46.992;9.518;2023-11-22T12:03:36;0.77;;;0.30;;
71116;SDS011;58775;46.992;9.518;2023-11-22T12:05:38;1.60;;;0.43;;
71116;SDS011;58775;46.992;9.518;2023-11-22T12:07:39;0.88;;;0.40;;
71116;SDS011;58775;46.992;9.518;2023-11-22T12:09:40;1.85;;;0.40;;
71116;SDS011;58775;46.992;9.518;2023-11-22T12:11:41;1.90;;;0.50;;
71116;SDS011;58775;46.992;9.518;2023-11-22T12:13:44;1.98;;;0.50;;
71116;SDS011;58775;46.992;9.518;2023-11-22T12:15:47;2.08;;;0.32;;
71116;SDS011;58775;46.992;9.518;2023-11-22T12:17:48;1.45;;;0.47;;
71116;SDS011;58775;46.992;9.518;2023-11-22T12:20:08;1.23;;;0.40;;